Map

Track Data

SID SEASON NUMBER BASIN SUBBASIN NAME ISO_TIME NATURE LAT LON WMO_WIND WMO_PRES WMO_AGENCY TRACK_TYPE DIST2LAND LANDFALL IFLAG USA_AGENCY USA_ATCF_ID USA_LAT USA_LON USA_RECORD USA_STATUS USA_WIND USA_PRES USA_SSHS USA_R34_NE USA_R34_SE USA_R34_SW USA_R34_NW USA_R50_NE USA_R50_SE USA_R50_SW USA_R50_NW USA_R64_NE USA_R64_SE USA_R64_SW USA_R64_NW USA_POCI USA_ROCI USA_RMW USA_EYE TOKYO_LAT TOKYO_LON TOKYO_GRADE TOKYO_WIND TOKYO_PRES TOKYO_R50_DIR TOKYO_R50_LONG TOKYO_R50_SHORT TOKYO_R30_DIR TOKYO_R30_LONG TOKYO_R30_SHORT TOKYO_LAND CMA_LAT CMA_LON CMA_CAT CMA_WIND CMA_PRES HKO_LAT HKO_LON HKO_CAT HKO_WIND HKO_PRES NEWDELHI_LAT NEWDELHI_LON NEWDELHI_GRADE NEWDELHI_WIND NEWDELHI_PRES NEWDELHI_CI NEWDELHI_DP NEWDELHI_POCI REUNION_LAT REUNION_LON REUNION_TYPE REUNION_WIND REUNION_PRES REUNION_TNUM REUNION_CI REUNION_RMW REUNION_R34_NE REUNION_R34_SE REUNION_R34_SW REUNION_R34_NW REUNION_R50_NE REUNION_R50_SE REUNION_R50_SW REUNION_R50_NW REUNION_R64_NE REUNION_R64_SE REUNION_R64_SW REUNION_R64_NW BOM_LAT BOM_LON BOM_TYPE BOM_WIND BOM_PRES BOM_TNUM BOM_CI BOM_RMW BOM_R34_NE BOM_R34_SE BOM_R34_SW BOM_R34_NW BOM_R50_NE BOM_R50_SE BOM_R50_SW BOM_R50_NW BOM_R64_NE BOM_R64_SE BOM_R64_SW BOM_R64_NW BOM_ROCI BOM_POCI BOM_EYE BOM_POS_METHOD BOM_PRES_METHOD NADI_LAT NADI_LON NADI_CAT NADI_WIND NADI_PRES WELLINGTON_LAT WELLINGTON_LON WELLINGTON_WIND WELLINGTON_PRES DS824_LAT DS824_LON DS824_STAGE DS824_WIND DS824_PRES TD9636_LAT TD9636_LON TD9636_STAGE TD9636_WIND TD9636_PRES TD9635_LAT TD9635_LON TD9635_WIND TD9635_PRES TD9635_ROCI NEUMANN_LAT NEUMANN_LON NEUMANN_CLASS NEUMANN_WIND NEUMANN_PRES MLC_LAT MLC_LON MLC_CLASS MLC_WIND MLC_PRES USA_GUST BOM_GUST BOM_GUST_PER REUNION_GUST REUNION_GUST_PER USA_SEAHGT USA_SEARAD_NE USA_SEARAD_SE USA_SEARAD_SW USA_SEARAD_NW STORM_SPEED STORM_DIR
1922329N09089 1922 65 NI BB NOT_NAMED 1922-11-25 00:00:00 TS 8.60000 89.3000 main 733 733 _________O____ -1 8.60000 89.3000 TC 30 3 272
1922329N09089 1922 65 NI BB NOT_NAMED 1922-11-25 03:00:00 TS 8.60668 89.1400 main 752 752 _________PO___ -1 8.61002 89.0600 TC 30 8.60000 89.3000 1 4 269
1922329N09089 1922 65 NI BB NOT_NAMED 1922-11-25 06:00:00 TS 8.59069 88.8887 main 772 757 _________OP___ -1 8.60000 88.8000 TC 30 8.57673 89.0219 1 5 264
1922329N09089 1922 65 NI BB NOT_NAMED 1922-11-25 09:00:00 TS 8.55544 88.6093 main 757 734 _________PP___ -1 8.55749 88.5075 TC 30 8.55269 88.7450 1 6 262
1922329N09089 1922 65 NI BB NOT_NAMED 1922-11-25 12:00:00 TS 8.51365 88.3353 main 723 701 _________OP___ -1 8.50000 88.2000 TC 30 8.52730 88.4706 1 6 261
1922329N09089 1922 65 NI BB NOT_NAMED 1922-11-25 15:00:00 TS 8.47125 88.0462 main 690 667 _________PO___ -1 8.44249 87.8925 TC 31 8.50000 88.2000 1 6 262
1922329N09089 1922 65 NI BB NOT_NAMED 1922-11-25 18:00:00 TS 8.43542 87.7666 main 667 634 _________OP___ -1 8.40000 87.6000 TC 32 8.47084 87.9331 1 5 264
1922329N09089 1922 65 NI BB NOT_NAMED 1922-11-25 21:00:00 TS 8.41741 87.5075 main 634 612 _________PP___ -1 8.39245 87.3500 TC 33 8.44236 87.6650 1 5 267
1922329N09089 1922 65 NI BB NOT_NAMED 1922-11-26 00:00:00 TS 8.40885 87.2447 main 601 580 _________OP___ -1 8.40000 87.1000 TC 34 8.41770 87.3894 1 5 268
1922329N09089 1922 65 NI BB NOT_NAMED 1922-11-26 03:00:00 TS 8.39999 86.9575 main 580 547 _________PO___ -1 8.39997 86.8150 TC 36 8.40000 87.1000 2 6 269
1922329N09089 1922 65 NI BB NOT_NAMED 1922-11-26 06:00:00 TS 8.39841 86.6467 main 536 503 _________OP___ -1 8.40000 86.5000 TC 39 8.39683 86.7935 2 6 270
1922329N09089 1922 65 NI BB NOT_NAMED 1922-11-26 09:00:00 TS 8.40371 86.3150 main 503 471 _________PP___ -1 8.40749 86.1575 TC 42 8.39992 86.4726 2 7 270
1922329N09089 1922 65 NI BB NOT_NAMED 1922-11-26 12:00:00 TS 8.40153 85.9702 main 471 428 _________OP___ -1 8.40000 85.8000 TC 45 8.40306 86.1404 2 7 268
1922329N09089 1922 65 NI BB NOT_NAMED 1922-11-26 15:00:00 TS 8.37498 85.6250 main 428 393 _________PO___ -1 8.34997 85.4500 TC 45 8.40000 85.8000 3 7 265
1922329N09089 1922 65 NI BB NOT_NAMED 1922-11-26 18:00:00 TS 8.33907 85.2725 main 393 350 _________OP___ -1 8.30000 85.1000 TC 45 8.37813 85.4450 3 7 266
1922329N09089 1922 65 NI BB NOT_NAMED 1922-11-26 21:00:00 TS 8.32126 84.9137 main 350 318 _________PP___ -1 8.29249 84.7425 TC 45 8.35003 85.0849 3 7 268
1922329N09089 1922 65 NI BB NOT_NAMED 1922-11-27 00:00:00 TS 8.31095 84.5662 main 318 286 _________OP___ -1 8.30000 84.4000 TC 45 8.32189 84.7325 3 7 268
1922329N09089 1922 65 NI BB NOT_NAMED 1922-11-27 03:00:00 TS 8.29999 84.2425 main 275 254 _________PO___ -1 8.29998 84.0850 TC 49 8.30000 84.4000 3 6 269
1922329N09089 1922 65 NI BB NOT_NAMED 1922-11-27 06:00:00 TS 8.29631 83.9578 main 254 223 _________OP___ -1 8.30000 83.8000 TC 54 8.29261 84.1157 3 5 270
1922329N09089 1922 65 NI BB NOT_NAMED 1922-11-27 09:00:00 TS 8.29608 83.7038 main 223 203 _________PP___ -1 8.29994 83.5575 TC 59 8.29222 83.8500 3 5 270
1922329N09089 1922 65 NI BB NOT_NAMED 1922-11-27 12:00:00 TS 8.29787 83.4422 main 193 173 _________OP___ -1 8.30000 83.3000 TC 64 8.29574 83.5844 3 6 270
1922329N09089 1922 65 NI BB NOT_NAMED 1922-11-27 15:00:00 TS 8.30000 83.1325 main 163 135 _________PO___ -1 8.30000 82.9650 TC 64 8.30000 83.3000 4 7 270
1922329N09089 1922 65 NI BB NOT_NAMED 1922-11-27 18:00:00 TS 8.30208 82.7756 main 135 94 _________OP___ -1 8.30000 82.6000 TC 64 8.30417 82.9513 4 7 270
1922329N09089 1922 65 NI BB NOT_NAMED 1922-11-27 21:00:00 TS 8.30383 82.4100 main 94 64 _________PP___ -1 8.30000 82.2350 TC 64 8.30766 82.5850 4 7 270
1922329N09089 1922 65 NI BB NOT_NAMED 1922-11-28 00:00:00 TS 8.30365 82.0631 main 64 39 _________OP___ -1 8.30000 81.9000 TC 64 8.30730 82.2263 4 6 270
1922329N09089 1922 65 NI BB NOT_NAMED 1922-11-28 03:00:00 TS 8.30373 81.7638 main 39 11 _________PO___ -1 8.30747 81.6275 TC 64 8.30000 81.9000 4 5 268
1922329N09089 1922 65 NI BB NOT_NAMED 1922-11-28 06:00:00 TS 8.28898 81.5195 main 11 0 _________OP___ -1 8.30000 81.4000 TC 64 8.27796 81.6391 4 5 263
1922329N09089 1922 65 NI BB NOT_NAMED 1922-11-28 09:00:00 TS 8.24989 81.3025 main 0 0 _________PP___ -1 8.24998 81.1925 TC 64 8.24980 81.4125 4 4 259
1922329N09089 1922 65 NI BB NOT_NAMED 1922-11-28 12:00:00 TS 8.21087 81.1023 main 0 0 _________OP___ -1 8.20000 81.0000 TC 64 8.22175 81.2047 4 4 262
1922329N09089 1922 65 NI BB NOT_NAMED 1922-11-28 15:00:00 TS 8.19624 80.9038 main 0 0 _________PO___ -1 8.19248 80.8075 TC 64 8.20000 81.0000 4 4 268
1922329N09089 1922 65 NI BB NOT_NAMED 1922-11-28 18:00:00 TS 8.19631 80.7038 main 0 0 _________OP___ -1 8.20000 80.6000 TC 64 8.19262 80.8075 4 4 270
1922329N09089 1922 65 NI BB NOT_NAMED 1922-11-28 21:00:00 TS 8.19607 80.4950 main 0 0 _________PP___ -1 8.19995 80.3800 TC 64 8.19219 80.6100 4 5 270
1922329N09089 1922 65 NI BB NOT_NAMED 1922-11-29 00:00:00 TS 8.19784 80.2412 main 0 0 _________OP___ -1 8.20000 80.1000 TC 64 8.19568 80.3825 4 6 270
1922329N09089 1922 65 NI BB NOT_NAMED 1922-11-29 03:00:00 TS 8.20000 79.9150 main 0 0 _________PO___ -1 8.20000 79.7300 TC 64 8.20000 80.1000 4 7 270
1922329N09089 1922 65 NI BB NOT_NAMED 1922-11-29 06:00:00 TS 8.19816 79.4939 main 22 22 _________OP___ -1 8.20000 79.3000 TC 64 8.19631 79.6878 4 9 270
1922329N09089 1922 65 NI BB NOT_NAMED 1922-11-29 09:00:00 TS 8.19657 79.0200 main 77 59 _________PP___ -1 8.20009 78.8125 TC 64 8.19304 79.2275 4 9 270
1922329N09089 1922 65 NI BB NOT_NAMED 1922-11-29 12:00:00 TS 8.19659 78.5892 main 59 31 _________OP___ -1 8.20000 78.4000 TC 64 8.19319 78.7784 4 7 270
1922329N09089 1922 65 NI BB NOT_NAMED 1922-11-29 15:00:00 TS 8.19620 78.3025 main 31 24 _________PO___ -1 8.19241 78.2050 TC 64 8.20000 78.4000 4 4 271
1922329N09089 1922 65 NI BB NOT_NAMED 1922-11-29 18:00:00 TS 8.20656 78.1720 main 24 22 _________OP___ -1 8.20000 78.1000 TC 64 8.21313 78.2440 4 2 281
1922329N09089 1922 65 NI BB NOT_NAMED 1922-11-29 21:00:00 TS 8.23821 78.0849 main 22 0 _________PP___ -1 8.24234 78.0175 TC 64 8.23408 78.1523 4 3 286
1922329N09089 1922 65 NI AS NOT_NAMED 1922-11-30 00:00:00 TS 8.28151 77.9173 main 0 0 _________OP___ -1 8.30000 77.8000 TC 64 8.26302 78.0345 4 6 279
1922329N09089 1922 65 NI AS NOT_NAMED 1922-11-30 03:00:00 TS 8.32507 77.5338 main 0 0 _________PO___ -1 8.35013 77.2675 TC 64 8.30000 77.8000 4 10 275
1922329N09089 1922 65 NI AS NOT_NAMED 1922-11-30 06:00:00 TS 8.36976 76.9444 main 11 11 _________OP___ -1 8.40000 76.6000 TC 64 8.33953 77.2888 4 12 274
1922329N09089 1922 65 NI AS NOT_NAMED 1922-11-30 09:00:00 TS 8.41810 76.3113 main 55 55 _________PP___ -1 8.45005 75.9625 TC 64 8.38614 76.6600 4 12 275
1922329N09089 1922 65 NI AS NOT_NAMED 1922-11-30 12:00:00 TS 8.46977 75.7006 main 98 98 _________OP___ -1 8.50000 75.4000 TC 64 8.43954 76.0012 4 11 275
1922329N09089 1922 65 NI AS NOT_NAMED 1922-11-30 15:00:00 TS 8.52117 75.2062 main 149 149 _________PO___ -1 8.54234 75.0125 TC 64 8.50000 75.4000 4 9 278
1922329N09089 1922 65 NI AS NOT_NAMED 1922-11-30 18:00:00 TS 8.58364 74.8411 main 187 187 _________OP___ -1 8.60000 74.7000 TC 64 8.56727 74.9822 4 7 282
1922329N09089 1922 65 NI AS NOT_NAMED 1922-11-30 21:00:00 TS 8.66714 74.4912 main 212 212 _________PP___ -1 8.69247 74.3500 TC 64 8.64182 74.6325 4 7 285
1922329N09089 1922 65 NI AS NOT_NAMED 1922-12-01 00:00:00 TS 8.76025 74.1583 main 240 240 _________OP___ -1 8.80000 74.0000 TC 64 8.72049 74.3165 4 7 286
1922329N09089 1922 65 NI AS NOT_NAMED 1922-12-01 03:00:00 TS 8.85372 73.8288 main 280 280 _________PO___ -1 8.90744 73.6575 TC 64 8.80000 74.0000 4 7 285
1922329N09089 1922 65 NI AS NOT_NAMED 1922-12-01 06:00:00 TS 8.93742 73.4722 main 312 312 _________OP___ -1 9.00000 73.3000 TC 64 8.87483 73.6443 4 7 282
1922329N09089 1922 65 NI AS NOT_NAMED 1922-12-01 09:00:00 TS 9.00360 73.0974 main 354 354 _________PP___ -1 9.05745 72.9150 TC 64 8.94975 73.2799 4 8 279
1922329N09089 1922 65 NI AS NOT_NAMED 1922-12-01 12:00:00 TS 9.06240 72.7003 main 396 396 _________OP___ -1 9.10000 72.5000 TC 64 9.02480 72.9005 4 8 278
1922329N09089 1922 65 NI AS NOT_NAMED 1922-12-01 15:00:00 TS 9.12124 72.2787 main 438 438 _________PO___ -1 9.14247 72.0575 TC 64 9.10000 72.5000 4 9 278
1922329N09089 1922 65 NI AS NOT_NAMED 1922-12-01 18:00:00 TS 9.18551 71.8276 main 483 483 _________OP___ -1 9.20000 71.6000 TC 64 9.17103 72.0553 4 9 279
1922329N09089 1922 65 NI AS NOT_NAMED 1922-12-01 21:00:00 TS 9.26757 71.3637 main 513 513 _________PP___ -1 9.29250 71.1350 TC 64 9.24264 71.5924 4 9 281
1922329N09089 1922 65 NI AS NOT_NAMED 1922-12-02 00:00:00 TS 9.35895 70.9167 main 553 553 _________OP___ -1 9.40000 70.7000 TC 64 9.31791 71.1334 4 9 282
1922329N09089 1922 65 NI AS NOT_NAMED 1922-12-02 03:00:00 TS 9.44996 70.5175 main 590 585 _________PO___ -1 9.49992 70.3350 TC 64 9.40000 70.7000 4 8 284
1922329N09089 1922 65 NI AS NOT_NAMED 1922-12-02 06:00:00 TS 9.54625 70.1647 main 614 614 _________OP___ -1 9.60000 70.0000 TC 64 9.49249 70.3293 4 7 286
1922329N09089 1922 65 NI AS NOT_NAMED 1922-12-02 09:00:00 TS 9.64600 69.8212 main 648 643 _________PP___ -1 9.69994 69.6575 TC 64 9.59207 69.9849 4 7 286
1922329N09089 1922 65 NI AS NOT_NAMED 1922-12-02 12:00:00 TS 9.74782 69.4740 main 672 667 _________OP___ -1 9.80000 69.3000 TC 64 9.69563 69.6480 4 7 286
1922329N09089 1922 65 NI AS NOT_NAMED 1922-12-02 15:00:00 TS 9.84999 69.1037 main 706 701 _________PO___ -1 9.89998 68.9075 TC 64 9.80000 69.3000 4 8 285
1922329N09089 1922 65 NI AS NOT_NAMED 1922-12-02 18:00:00 TS 9.95213 68.6889 main 735 735 _________OP___ -1 10.0000 68.5000 TC 64 9.90425 68.8779 4 9 284
1922329N09089 1922 65 NI AS NOT_NAMED 1922-12-02 21:00:00 TS 10.0539 68.2551 main 770 770 _________PP___ -1 10.1001 68.0625 TC 64 10.0078 68.4476 4 8 284
1922329N09089 1922 65 NI AS NOT_NAMED 1922-12-03 00:00:00 TS 10.1537 67.8717 main 806 806 _________OP___ -1 10.2000 67.7000 TC 64 10.1074 68.0435 4 7 287
1922329N09089 1922 65 NI AS NOT_NAMED 1922-12-03 03:00:00 TS 10.2537 67.6100 main 833 833 _________PO___ -1 10.3074 67.5200 TC 64 10.2000 67.7000 4 4 296
1922329N09089 1922 65 NI AS NOT_NAMED 1922-12-03 06:00:00 TS 10.3406 67.4767 main 843 839 _________OP___ -1 10.4000 67.4000 TC 64 10.2812 67.5534 4 3 303
1922329N09089 1922 65 NI AS NOT_NAMED 1922-12-03 09:00:00 TS 10.4028 67.3722 main 850 850 _________PP___ -1 10.4497 67.2899 TC 64 10.3560 67.4545 4 3 291
1922329N09089 1922 65 NI AS NOT_NAMED 1922-12-03 12:00:00 TS 10.4639 67.1517 main 867 867 _________OP___ -1 10.5000 67.0000 TC 64 10.4278 67.3033 4 7 282
1922329N09089 1922 65 NI AS NOT_NAMED 1922-12-03 15:00:00 TS 10.5501 66.6663 main 916 916 _________PO___ -1 10.6003 66.3326 TC 64 10.5000 67.0000 4 12 278
1922329N09089 1922 65 NI AS NOT_NAMED 1922-12-03 18:00:00 TS 10.6340 65.9454 main 1000 1000 _________OP___ -1 10.7000 65.5000 TC 64 10.5680 66.3909 4 15 276
1922329N09089 1922 65 NI AS NOT_NAMED 1922-12-03 21:00:00 TS 10.6933 65.1773 main 1064 1064 _________PP___ -1 10.7500 64.7274 TC 64 10.6367 65.6273 4 15 275
1922329N09089 1922 65 NI AS NOT_NAMED 1922-12-04 00:00:00 TS 10.7559 64.4000 main 1097 1022 _________OP___ -1 10.8000 64.0000 TC 64 10.7118 64.8001 4 15 276
1922329N09089 1922 65 NI AS NOT_NAMED 1922-12-04 03:00:00 TS 10.8424 63.6887 main 1022 955 _________PO___ -1 10.8847 63.3775 TC 64 10.8000 64.0000 4 13 279
1922329N09089 1922 65 NI AS NOT_NAMED 1922-12-04 06:00:00 TS 10.9569 63.0785 main 953 887 _________OP___ -1 11.0000 62.8000 TC 64 10.9139 63.3570 4 12 282
1922329N09089 1922 65 NI AS NOT_NAMED 1922-12-04 09:00:00 TS 11.0957 62.4776 main 887 820 _________PP___ -1 11.1499 62.2000 TC 64 11.0415 62.7551 4 12 283
1922329N09089 1922 65 NI AS NOT_NAMED 1922-12-04 12:00:00 TS 11.2367 61.8878 main 820 754 _________OP___ -1 11.3000 61.6000 TC 64 11.1733 62.1757 4 12 283
1922329N09089 1922 65 NI AS NOT_NAMED 1922-12-04 15:00:00 TS 11.3537 61.3000 main 752 688 _________PO___ -1 11.4074 60.9999 TC 64 11.3000 61.6000 4 12 280
1922329N09089 1922 65 NI AS NOT_NAMED 1922-12-04 18:00:00 TS 11.4493 60.7019 main 688 621 _________OP___ -1 11.5000 60.4000 TC 64 11.3986 61.0037 4 12 279
1922329N09089 1922 65 NI AS NOT_NAMED 1922-12-04 21:00:00 TS 11.5421 60.1072 main 621 555 _________PP___ -1 11.5923 59.8074 TC 64 11.4919 60.4070 4 12 279
1922329N09089 1922 65 NI AS NOT_NAMED 1922-12-05 00:00:00 TS 11.6446 59.5034 main 555 486 _________OP___ -1 11.7000 59.2000 TC 64 11.5892 59.8068 4 12 281
1922329N09089 1922 65 NI AS NOT_NAMED 1922-12-05 03:00:00 TS 11.7712 58.8750 main 486 420 _________PO___ -1 11.8425 58.5500 TC 64 11.7000 59.2000 4 13 283
1922329N09089 1922 65 NI AS NOT_NAMED 1922-12-05 06:00:00 TS 11.9197 58.2411 main 409 352 _________OP___ -1 12.0000 57.9000 TC 64 11.8394 58.5822 4 13 284
1922329N09089 1922 65 NI AS NOT_NAMED 1922-12-05 09:00:00 TS 12.0709 57.6250 main 341 275 _________PP___ -1 12.1498 57.2924 TC 64 11.9920 57.9575 4 12 284
1922329N09089 1922 65 NI AS NOT_NAMED 1922-12-05 12:00:00 TS 12.2244 57.0145 main 275 207 _________OP___ -1 12.3000 56.7000 TC 64 12.1487 57.3290 4 12 284
1922329N09089 1922 65 NI AS NOT_NAMED 1922-12-05 15:00:00 TS 12.3787 56.4037 main 207 152 _________PO___ -1 12.4573 56.1075 TC 64 12.3000 56.7000 4 12 284
1922329N09089 1922 65 NI AS NOT_NAMED 1922-12-05 18:00:00 TS 12.5078 55.8274 main 141 76 _________OP___ -1 12.6000 55.5000 TC 64 12.4387 56.0730 4 12 282
1922329N09089 1922 65 NI AS NOT_NAMED 1922-12-05 21:00:00 TS 12.6238 55.2127 main 76 15 _________PP___ -1 12.7104 54.8601 TC 64 12.5661 55.4479 4 12 280
1922329N09089 1922 65 NI AS NOT_NAMED 1922-12-06 00:00:00 TS 12.7236 54.6158 main 15 11 _________OP___ -1 12.8000 54.2000 TC 64 12.6854 54.8238 4 10 280
1922329N09089 1922 65 NI AS NOT_NAMED 1922-12-06 03:00:00 NR 12.8000 54.2000 main 22 __________O___ -1 TC 12.8000 54.2000 4 8 281

About IBTrACS Database

This database is a web-friendly format of International Best Track Archive for Climate Stewardship (IBTrACS), a global best track data archive curated by NOAA dating back to 1842.

Updated: 2021-12-06